Nashville, Tennessee
Traffic Map
Current Weather Conditions
Nashville, Tennessee
Overcast
Overcast
75°
Feels Like: 75°
Wind Chill: 75° Ceiling: 800
Heat Index: 75° Visibility: 10mi
Dew Point: 71° Wind: 5mph
Humidity: 87% Direction: 220° (SW)
Pressure: 30.02in Gusts: 0mph
Raw Report DataKBNA 301253Z 22004KT 10SM OVC008 24/22 A3002 RMK AO2 SLP156 T02390217
Traffic Incident Summary
Active as of:
Severity:
Category:
InformationThere was an issue retrieving the traffic information for this location. Please try a different location or try again shortly.
Advertisements
Track Severe Weather on mobile